Time;durP1;ratioP1;P1;durP2;ratioP2;P2;SDS_P1;SDS_P2;PMS_P1;PMS_P2;Temp;Humidity;BMP_temperature;BMP_pressure;BME280_temperature;BME280_humidity;BME280_pressure;Samples;Min_cycle;Max_cycle;Signal;HPM_P1;HPM_P2
2024/01/05 00:02:04;;;;;;;1.13;0.60;;;;;;;;;;5877621;28;20057;-81
2024/01/05 00:04:55;;;;;;;0.30;0.30;;;;;;;;;;5861216;28;20046;-82
2024/01/05 00:07:46;;;;;;;0.43;0.40;;;;;;;;;;5860890;28;20045;-81
2024/01/05 00:10:37;;;;;;;0.45;0.45;;;;;;;;;;5862186;28;20053;-82
2024/01/05 00:13:27;;;;;;;0.70;0.50;;;;;;;;;;5862287;28;20083;-82
2024/01/05 00:16:22;;;;;;;0.40;0.40;;;;;;;;;;5877432;28;20337;-82
2024/01/05 00:19:13;;;;;;;1.05;0.50;;;;;;;;;;5861172;28;20507;-82
2024/01/05 00:22:04;;;;;;;0.52;0.52;;;;;;;;;;5860879;28;20072;-81
2024/01/05 00:24:55;;;;;;;0.30;0.30;;;;;;;;;;5844843;28;20053;-82
2024/01/05 00:27:45;;;;;;;1.13;1.00;;;;;;;;;;5844658;28;20045;-81
2024/01/05 00:30:36;;;;;;;0.50;0.50;;;;;;;;;;5860759;28;20049;-81
2024/01/05 00:33:27;;;;;;;2.35;0.90;;;;;;;;;;5860660;28;20059;-82
2024/01/05 00:36:18;;;;;;;1.75;0.30;;;;;;;;;;5862100;28;20092;-82
2024/01/05 00:39:10;;;;;;;2.40;0.63;;;;;;;;;;5861967;28;20053;-81
2024/01/05 00:42:04;;;;;;;1.55;0.77;;;;;;;;;;5860772;28;20164;-79
2024/01/05 00:44:55;;;;;;;0.20;0.20;;;;;;;;;;5861617;28;20096;-81
2024/01/05 00:47:46;;;;;;;0.98;0.32;;;;;;;;;;5877321;28;20041;-81
2024/01/05 00:50:36;;;;;;;0.52;0.52;;;;;;;;;;5877181;28;20045;-81
2024/01/05 00:53:27;;;;;;;0.50;0.50;;;;;;;;;;5860681;28;20041;-83
2024/01/05 00:56:18;;;;;;;1.00;0.90;;;;;;;;;;5860702;28;20045;-81
2024/01/05 00:59:11;;;;;;;0.68;0.38;;;;;;;;;;5880907;28;20053;-82
2024/01/05 01:02:02;;;;;;;1.35;0.50;;;;;;;;;;5859717;28;20056;-80
2024/01/05 01:04:53;;;;;;;1.10;0.70;;;;;;;;;;5859711;28;20045;-81
2024/01/05 01:07:44;;;;;;;0.38;0.38;;;;;;;;;;5865817;28;20427;-81
2024/01/05 01:10:34;;;;;;;0.28;0.28;;;;;;;;;;5865724;28;20052;-81
2024/01/05 01:13:25;;;;;;;0.57;0.57;;;;;;;;;;5864452;28;20052;-81
2024/01/05 01:16:16;;;;;;;0.50;0.50;;;;;;;;;;5864562;28;20068;-81
2024/01/05 01:19:07;;;;;;;0.45;0.45;;;;;;;;;;5880838;28;20057;-80
2024/01/05 01:21:58;;;;;;;0.30;0.30;;;;;;;;;;5864775;28;20050;-80
2024/01/05 01:24:48;;;;;;;0.20;0.20;;;;;;;;;;5864352;28;20419;-80
2024/01/05 01:27:39;;;;;;;0.80;0.80;;;;;;;;;;5865490;28;20041;-80
2024/01/05 01:30:30;;;;;;;8.77;1.10;;;;;;;;;;5865288;28;20383;-80
2024/01/05 01:33:21;;;;;;;1.33;0.60;;;;;;;;;;5863815;28;20416;-80
2024/01/05 01:36:12;;;;;;;0.73;0.73;;;;;;;;;;5863922;28;20053;-81
2024/01/05 01:39:04;;;;;;;0.40;0.40;;;;;;;;;;5863785;28;20492;-80
2024/01/05 01:41:55;;;;;;;0.68;0.68;;;;;;;;;;5864480;28;20053;-80
2024/01/05 01:44:46;;;;;;;0.30;0.30;;;;;;;;;;5863548;28;20056;-80
2024/01/05 01:47:38;;;;;;;0.98;0.50;;;;;;;;;;5863808;28;20042;-80
2024/01/05 01:50:29;;;;;;;0.43;0.43;;;;;;;;;;5863833;28;20411;-80
2024/01/05 01:53:21;;;;;;;0.73;0.73;;;;;;;;;;5863781;28;20042;-80
2024/01/05 01:56:13;;;;;;;0.30;0.30;;;;;;;;;;5863615;28;20068;-80
2024/01/05 01:59:05;;;;;;;0.43;0.40;;;;;;;;;;5863548;28;20053;-81
2024/01/05 02:01:57;;;;;;;0.43;0.43;;;;;;;;;;5863895;28;20056;-80
2024/01/05 02:04:50;;;;;;;0.80;0.77;;;;;;;;;;5863396;28;20042;-80
2024/01/05 02:07:42;;;;;;;0.50;0.50;;;;;;;;;;5879603;28;20112;-81
2024/01/05 02:10:33;;;;;;;2.65;0.80;;;;;;;;;;5862635;28;20049;-81
2024/01/05 02:13:24;;;;;;;0.82;0.75;;;;;;;;;;5863242;28;20052;-80
2024/01/05 02:16:14;;;;;;;1.00;0.65;;;;;;;;;;5863358;28;20427;-80
2024/01/05 02:19:05;;;;;;;0.35;0.35;;;;;;;;;;5879677;28;20095;-80
2024/01/05 02:21:59;;;;;;;0.20;0.20;;;;;;;;;;5880146;28;20521;-80
2024/01/05 02:24:50;;;;;;;0.50;0.50;;;;;;;;;;5831880;28;20045;-80
2024/01/05 02:27:41;;;;;;;0.35;0.35;;;;;;;;;;5839944;28;20049;-80
2024/01/05 02:30:32;;;;;;;0.47;0.47;;;;;;;;;;5856146;28;20128;-80
2024/01/05 02:33:23;;;;;;;2.00;0.43;;;;;;;;;;5839552;28;20056;-80
2024/01/05 02:36:14;;;;;;;4.65;0.65;;;;;;;;;;5855828;28;20061;-80
2024/01/05 02:39:05;;;;;;;0.43;0.43;;;;;;;;;;5840979;28;20129;-80
2024/01/05 02:41:56;;;;;;;0.57;0.57;;;;;;;;;;5839976;28;20109;-80
2024/01/05 02:44:47;;;;;;;0.52;0.52;;;;;;;;;;5839479;28;20585;-80
2024/01/05 02:47:37;;;;;;;1.38;1.27;;;;;;;;;;5840576;28;20503;-80
2024/01/05 02:50:28;;;;;;;5.80;1.10;;;;;;;;;;5840784;28;20042;-80
2024/01/05 02:53:19;;;;;;;0.57;0.57;;;;;;;;;;5839090;28;20045;-80
2024/01/05 02:56:22;;;;;;;0.90;0.50;;;;;;;;;;5839371;28;20054;-80
2024/01/05 02:59:14;;;;;;;0.52;0.52;;;;;;;;;;5839779;28;20053;-80
2024/01/05 03:02:04;;;;;;;1.65;0.60;;;;;;;;;;5840460;28;20064;-79
2024/01/05 03:04:56;;;;;;;0.68;0.57;;;;;;;;;;5839626;28;20132;-80
2024/01/05 03:07:47;;;;;;;0.38;0.32;;;;;;;;;;5839336;28;20050;-80
2024/01/05 03:10:38;;;;;;;1.02;0.60;;;;;;;;;;5839140;28;20046;-80
2024/01/05 03:13:28;;;;;;;0.45;0.45;;;;;;;;;;5838956;28;20051;-80
2024/01/05 03:16:19;;;;;;;1.13;0.47;;;;;;;;;;5840225;28;20049;-79
2024/01/05 03:19:10;;;;;;;1.08;0.70;;;;;;;;;;5838759;28;20046;-80
2024/01/05 03:22:01;;;;;;;0.63;0.50;;;;;;;;;;5838853;28;20049;-79
2024/01/05 03:24:52;;;;;;;0.50;0.50;;;;;;;;;;5855525;28;20057;-80
2024/01/05 03:27:42;;;;;;;0.50;0.50;;;;;;;;;;5838601;28;20391;-79
2024/01/05 03:30:33;;;;;;;0.40;0.40;;;;;;;;;;5855084;28;20073;-79
2024/01/05 03:33:24;;;;;;;0.32;0.32;;;;;;;;;;5838451;28;20125;-79
2024/01/05 03:36:15;;;;;;;0.68;0.68;;;;;;;;;;5854730;28;20053;-79
2024/01/05 03:39:07;;;;;;;1.70;1.08;;;;;;;;;;5839722;28;20057;-79
2024/01/05 03:41:58;;;;;;;0.45;0.45;;;;;;;;;;5838693;28;20049;-79
2024/01/05 03:44:49;;;;;;;0.77;0.52;;;;;;;;;;5854562;28;20041;-79
2024/01/05 03:47:40;;;;;;;2.90;1.10;;;;;;;;;;5838066;28;20048;-79
2024/01/05 03:50:31;;;;;;;0.40;0.40;;;;;;;;;;5854572;28;20500;-79
2024/01/05 03:53:22;;;;;;;0.50;0.50;;;;;;;;;;5821833;28;20045;-79
2024/01/05 03:56:13;;;;;;;0.40;0.40;;;;;;;;;;5838367;28;20053;-79
2024/01/05 03:59:05;;;;;;;0.70;0.70;;;;;;;;;;5838178;28;20050;-79
2024/01/05 04:01:55;;;;;;;0.63;0.60;;;;;;;;;;5822604;28;20046;-79
2024/01/05 04:04:46;;;;;;;0.32;0.32;;;;;;;;;;5821730;28;20062;-79
2024/01/05 04:07:38;;;;;;;0.60;0.60;;;;;;;;;;5838156;28;20176;-79
2024/01/05 04:10:29;;;;;;;0.50;0.47;;;;;;;;;;5821969;28;20049;-79
2024/01/05 04:13:20;;;;;;;1.25;0.65;;;;;;;;;;5839173;28;20054;-79
2024/01/05 04:16:10;;;;;;;1.50;0.80;;;;;;;;;;5837800;28;20058;-79
2024/01/05 04:19:02;;;;;;;0.65;0.65;;;;;;;;;;5837977;28;20054;-78
2024/01/05 04:21:53;;;;;;;1.27;0.77;;;;;;;;;;5838000;28;20057;-79
2024/01/05 04:24:44;;;;;;;1.23;0.75;;;;;;;;;;5837796;28;20164;-79
2024/01/05 04:27:35;;;;;;;0.65;0.65;;;;;;;;;;5837731;28;20057;-79
2024/01/05 04:30:26;;;;;;;0.65;0.65;;;;;;;;;;5837855;28;20050;-79
2024/01/05 04:33:17;;;;;;;0.40;0.40;;;;;;;;;;5841814;28;20416;-79
2024/01/05 04:36:08;;;;;;;1.65;0.60;;;;;;;;;;5842211;28;20046;-79
2024/01/05 04:38:59;;;;;;;0.40;0.40;;;;;;;;;;5842860;28;20054;-79
2024/01/05 04:41:50;;;;;;;0.35;0.35;;;;;;;;;;5842413;28;20049;-79
2024/01/05 04:44:41;;;;;;;0.90;0.75;;;;;;;;;;5841741;28;20045;-79
2024/01/05 04:47:34;;;;;;;0.60;0.60;;;;;;;;;;5826200;28;20492;-79
2024/01/05 04:50:25;;;;;;;0.60;0.50;;;;;;;;;;5841984;28;20073;-79
2024/01/05 04:53:16;;;;;;;1.88;1.23;;;;;;;;;;5842064;28;20598;-79
2024/01/05 04:56:07;;;;;;;0.43;0.43;;;;;;;;;;5841847;28;20576;-79
2024/01/05 04:58:58;;;;;;;0.82;0.80;;;;;;;;;;5842321;28;20069;-79
2024/01/05 05:01:48;;;;;;;2.20;0.82;;;;;;;;;;5857892;28;20053;-79
2024/01/05 05:04:39;;;;;;;4.30;0.63;;;;;;;;;;5842978;28;20058;-79
2024/01/05 05:07:30;;;;;;;0.30;0.30;;;;;;;;;;5841516;28;20057;-79
2024/01/05 05:10:22;;;;;;;1.08;0.73;;;;;;;;;;5841331;28;20054;-79
2024/01/05 05:13:13;;;;;;;0.57;0.57;;;;;;;;;;5841591;28;20072;-79
2024/01/05 05:16:04;;;;;;;2.28;1.10;;;;;;;;;;5841396;28;20046;-79
2024/01/05 05:18:55;;;;;;;0.45;0.45;;;;;;;;;;5841834;28;20042;-79
2024/01/05 05:21:46;;;;;;;1.42;0.63;;;;;;;;;;5842749;28;20049;-79
2024/01/05 05:24:37;;;;;;;0.57;0.57;;;;;;;;;;5841084;28;20042;-79
2024/01/05 05:27:27;;;;;;;0.85;0.55;;;;;;;;;;5841258;28;20042;-79
2024/01/05 05:30:18;;;;;;;3.60;1.85;;;;;;;;;;5841295;28;20064;-79
2024/01/05 05:33:09;;;;;;;10.40;0.95;;;;;;;;;;5842164;28;20061;-79
2024/01/05 05:36:00;;;;;;;1.90;1.48;;;;;;;;;;5841637;28;20061;-79
2024/01/05 05:38:51;;;;;;;1.52;0.60;;;;;;;;;;5842319;28;20096;-79
2024/01/05 05:41:42;;;;;;;0.68;0.68;;;;;;;;;;5824751;28;20129;-79
2024/01/05 05:44:33;;;;;;;4.22;0.57;;;;;;;;;;5841162;28;20046;-79
2024/01/05 05:47:23;;;;;;;3.13;1.30;;;;;;;;;;5829085;28;20054;-79
2024/01/05 05:50:14;;;;;;;0.63;0.63;;;;;;;;;;5841883;28;20132;-79
2024/01/05 05:53:05;;;;;;;0.35;0.35;;;;;;;;;;5844874;28;20529;-78
2024/01/05 05:55:56;;;;;;;0.80;0.80;;;;;;;;;;5841508;28;20364;-79
2024/01/05 05:58:47;;;;;;;0.77;0.77;;;;;;;;;;5841321;28;20048;-79
2024/01/05 06:01:38;;;;;;;1.55;0.77;;;;;;;;;;5842554;28;20042;-79
2024/01/05 06:04:28;;;;;;;0.65;0.57;;;;;;;;;;5842114;28;20050;-79
2024/01/05 06:07:19;;;;;;;1.13;0.98;;;;;;;;;;5842128;28;20171;-79
2024/01/05 06:10:10;;;;;;;1.75;1.08;;;;;;;;;;5842241;28;20504;-79
2024/01/05 06:13:02;;;;;;;0.82;0.82;;;;;;;;;;5842841;28;20525;-79
2024/01/05 06:15:53;;;;;;;0.73;0.73;;;;;;;;;;5827464;28;20181;-79
2024/01/05 06:18:44;;;;;;;0.65;0.55;;;;;;;;;;5845070;28;20053;-79
2024/01/05 06:21:35;;;;;;;0.52;0.52;;;;;;;;;;5844301;28;20050;-79
2024/01/05 06:24:26;;;;;;;3.20;0.80;;;;;;;;;;5840351;28;20045;-79
2024/01/05 06:27:17;;;;;;;0.88;0.63;;;;;;;;;;5841393;28;20053;-79
2024/01/05 06:30:18;;;;;;;0.50;0.50;;;;;;;;;;5842247;28;20053;-79
2024/01/05 06:33:09;;;;;;;1.85;1.05;;;;;;;;;;5844177;28;20228;-79
2024/01/05 06:36:00;;;;;;;1.02;0.93;;;;;;;;;;5842132;28;20635;-79
2024/01/05 06:38:51;;;;;;;1.65;1.20;;;;;;;;;;5842503;28;20069;-79
2024/01/05 06:41:42;;;;;;;2.88;1.10;;;;;;;;;;5857822;28;20046;-80
2024/01/05 06:44:33;;;;;;;1.95;1.75;;;;;;;;;;5841218;28;20052;-79
2024/01/05 06:47:25;;;;;;;6.03;1.52;;;;;;;;;;5825316;28;20530;-79
2024/01/05 06:50:16;;;;;;;1.17;1.08;;;;;;;;;;5842332;28;20064;-79
2024/01/05 06:53:07;;;;;;;0.70;0.70;;;;;;;;;;5842950;28;20064;-79
2024/01/05 06:55:58;;;;;;;0.70;0.70;;;;;;;;;;5841625;28;20060;-79
2024/01/05 06:58:50;;;;;;;2.17;1.50;;;;;;;;;;5857685;28;20049;-79
2024/01/05 07:01:41;;;;;;;4.07;1.50;;;;;;;;;;5841268;28;20356;-79
2024/01/05 07:04:32;;;;;;;2.40;1.33;;;;;;;;;;5841225;28;20432;-79
2024/01/05 07:07:23;;;;;;;0.30;0.30;;;;;;;;;;5842853;28;20507;-79
2024/01/05 07:10:14;;;;;;;12.02;4.60;;;;;;;;;;5842509;28;20057;-79
2024/01/05 07:13:08;;;;;;;0.63;0.63;;;;;;;;;;5839374;28;20133;-79
2024/01/05 07:15:59;;;;;;;1.42;0.82;;;;;;;;;;5839599;28;20512;-79
2024/01/05 07:18:50;;;;;;;1.23;1.13;;;;;;;;;;5822603;28;20077;-79
2024/01/05 07:21:41;;;;;;;0.80;0.80;;;;;;;;;;5838706;28;20054;-79
2024/01/05 07:24:38;;;;;;;1.85;1.10;;;;;;;;;;5838660;28;20045;-79
2024/01/05 07:27:29;;;;;;;1.02;1.00;;;;;;;;;;5839705;28;20053;-79
2024/01/05 07:30:20;;;;;;;0.82;0.70;;;;;;;;;;5840030;28;20153;-79
2024/01/05 07:33:10;;;;;;;4.30;1.13;;;;;;;;;;5838566;28;20069;-79
2024/01/05 07:36:05;;;;;;;0.55;0.55;;;;;;;;;;5839468;28;20464;-79
2024/01/05 07:38:59;;;;;;;13.32;0.77;;;;;;;;;;5838900;28;20526;-79
2024/01/05 07:41:50;;;;;;;1.25;0.85;;;;;;;;;;5838623;28;20046;-79
2024/01/05 07:44:41;;;;;;;1.33;0.75;;;;;;;;;;5854471;28;20046;-79
2024/01/05 07:47:32;;;;;;;0.60;0.60;;;;;;;;;;5839816;28;20045;-79
2024/01/05 07:50:23;;;;;;;1.33;0.75;;;;;;;;;;5838398;28;20050;-79
2024/01/05 07:53:13;;;;;;;4.00;1.50;;;;;;;;;;5838382;28;20404;-79
2024/01/05 07:56:05;;;;;;;0.73;0.73;;;;;;;;;;5821974;28;20492;-79
2024/01/05 07:58:56;;;;;;;0.75;0.75;;;;;;;;;;5822496;28;20056;-79
2024/01/05 08:01:51;;;;;;;1.15;0.88;;;;;;;;;;5840062;28;20042;-79
2024/01/05 08:04:42;;;;;;;0.55;0.40;;;;;;;;;;5839895;28;20042;-79
2024/01/05 08:07:33;;;;;;;0.57;0.57;;;;;;;;;;5837367;28;20052;-79
2024/01/05 08:10:24;;;;;;;1.65;0.50;;;;;;;;;;5839445;28;20046;-79
2024/01/05 08:13:15;;;;;;;1.23;1.02;;;;;;;;;;5839149;28;20411;-79
2024/01/05 08:16:06;;;;;;;0.50;0.50;;;;;;;;;;5854262;28;20054;-79
2024/01/05 08:18:57;;;;;;;3.00;1.63;;;;;;;;;;5838357;28;20058;-79
2024/01/05 08:21:48;;;;;;;1.10;0.93;;;;;;;;;;5821604;28;20050;-79
2024/01/05 08:24:39;;;;;;;2.72;0.65;;;;;;;;;;5839246;28;20119;-79
2024/01/05 08:27:30;;;;;;;2.08;1.17;;;;;;;;;;5838535;28;20049;-79
2024/01/05 08:30:21;;;;;;;0.82;0.82;;;;;;;;;;5841086;28;20049;-79
2024/01/05 08:33:13;;;;;;;0.40;0.40;;;;;;;;;;5839033;28;20054;-79
2024/01/05 08:36:05;;;;;;;1.30;1.08;;;;;;;;;;5837969;28;20050;-79
2024/01/05 08:38:55;;;;;;;1.42;0.95;;;;;;;;;;5854462;28;20046;-79
2024/01/05 08:41:46;;;;;;;0.98;0.93;;;;;;;;;;5837950;28;20048;-79
2024/01/05 08:44:38;;;;;;;0.65;0.60;;;;;;;;;;5837655;28;20459;-79
2024/01/05 08:47:28;;;;;;;0.57;0.52;;;;;;;;;;5821289;28;20057;-79
2024/01/05 08:50:19;;;;;;;0.55;0.55;;;;;;;;;;5837488;28;20100;-80
2024/01/05 08:53:10;;;;;;;1.02;0.93;;;;;;;;;;5837517;28;20073;-80
2024/01/05 08:56:01;;;;;;;3.20;1.85;;;;;;;;;;5821203;28;20477;-80
2024/01/05 08:58:52;;;;;;;0.50;0.50;;;;;;;;;;5837725;28;20416;-80
2024/01/05 09:01:42;;;;;;;1.02;0.60;;;;;;;;;;5820865;28;20412;-80
2024/01/05 09:04:33;;;;;;;54.08;31.02;;;;;;;;;;5838679;28;20045;-80
2024/01/05 09:07:24;;;;;;;11.07;3.80;;;;;;;;;;5837223;28;20041;-80
2024/01/05 09:10:15;;;;;;;2.80;1.17;;;;;;;;;;5821005;28;20061;-80
2024/01/05 09:13:05;;;;;;;1.92;1.17;;;;;;;;;;5838708;28;20049;-80
2024/01/05 09:15:56;;;;;;;1.15;1.05;;;;;;;;;;5837701;28;20078;-80
2024/01/05 09:18:47;;;;;;;2.03;1.42;;;;;;;;;;5822601;28;20112;-80
2024/01/05 09:21:38;;;;;;;1.98;0.90;;;;;;;;;;5841444;28;20037;-80
2024/01/05 09:24:29;;;;;;;0.30;0.30;;;;;;;;;;5841986;28;20081;-80
2024/01/05 09:27:20;;;;;;;1.50;1.23;;;;;;;;;;5848821;28;21402;-80
2024/01/05 09:30:11;;;;;;;2.53;1.20;;;;;;;;;;5841360;28;20129;-80
2024/01/05 09:33:03;;;;;;;2.08;1.48;;;;;;;;;;5840868;28;20096;-80
2024/01/05 09:35:54;;;;;;;3.63;1.88;;;;;;;;;;5841420;28;20049;-81
2024/01/05 09:38:45;;;;;;;2.28;0.57;;;;;;;;;;5824596;28;20520;-81
2024/01/05 09:41:36;;;;;;;3.35;1.65;;;;;;;;;;5842217;28;20056;-81
2024/01/05 09:44:30;;;;;;;2.35;1.77;;;;;;;;;;5842342;28;20042;-81
2024/01/05 09:47:21;;;;;;;3.90;1.42;;;;;;;;;;5840659;28;20057;-81
2024/01/05 09:50:14;;;;;;;0.80;0.80;;;;;;;;;;5840846;28;20057;-81
2024/01/05 09:53:09;;;;;;;1.60;1.50;;;;;;;;;;5840628;28;20053;-81
2024/01/05 09:56:02;;;;;;;0.65;0.65;;;;;;;;;;5841289;28;20054;-82
2024/01/05 09:58:54;;;;;;;1.23;1.13;;;;;;;;;;5841586;28;20041;-82
2024/01/05 10:01:49;;;;;;;1.92;0.90;;;;;;;;;;5840408;28;20054;-82
2024/01/05 10:04:41;;;;;;;3.17;2.08;;;;;;;;;;5841678;28;20519;-82
2024/01/05 10:07:44;;;;;;;2.75;1.63;;;;;;;;;;5841586;28;20052;-82
2024/01/05 10:10:52;;;;;;;1.33;1.23;;;;;;;;;;5840193;28;20056;-82
2024/01/05 10:13:54;;;;;;;0.95;0.88;;;;;;;;;;5824492;28;20044;-82
2024/01/05 10:16:45;;;;;;;3.05;1.92;;;;;;;;;;5840536;28;20048;-82
2024/01/05 10:19:37;;;;;;;3.58;2.70;;;;;;;;;;5840004;28;20053;-82
2024/01/05 10:22:29;;;;;;;2.40;2.17;;;;;;;;;;5840210;28;20057;-83
2024/01/05 10:25:21;;;;;;;1.38;1.23;;;;;;;;;;5839843;28;20050;-83
2024/01/05 10:28:24;;;;;;;2.65;2.30;;;;;;;;;;5839992;28;20054;-82
2024/01/05 10:31:19;;;;;;;9.95;4.85;;;;;;;;;;5840659;28;20508;-83
2024/01/05 10:34:10;;;;;;;3.88;1.95;;;;;;;;;;5839793;28;20132;-82
2024/01/05 10:37:08;;;;;;;2.55;1.92;;;;;;;;;;5839859;28;20404;-82
2024/01/05 10:40:03;;;;;;;2.85;1.95;;;;;;;;;;5840205;28;20396;-82
2024/01/05 10:43:09;;;;;;;1.10;0.70;;;;;;;;;;5841110;28;20045;-83
2024/01/05 10:46:02;;;;;;;3.67;0.82;;;;;;;;;;5856117;28;20045;-82
2024/01/05 10:48:54;;;;;;;2.50;1.27;;;;;;;;;;5864222;28;20072;-82
2024/01/05 10:51:46;;;;;;;1.83;1.33;;;;;;;;;;5878938;28;20549;-83
2024/01/05 10:54:37;;;;;;;1.48;1.33;;;;;;;;;;5862560;28;20123;-82
2024/01/05 10:57:30;;;;;;;3.08;2.47;;;;;;;;;;5862517;28;20049;-82
2024/01/05 11:00:24;;;;;;;1.85;1.02;;;;;;;;;;5862404;28;20048;-82
2024/01/05 11:03:19;;;;;;;2.80;2.42;;;;;;;;;;5828524;28;20050;-82
2024/01/05 11:06:10;;;;;;;1.67;1.45;;;;;;;;;;5855754;28;20196;-82
2024/01/05 11:09:21;;;;;;;0.98;0.98;;;;;;;;;;5839178;28;20506;-81
2024/01/05 11:12:28;;;;;;;7.15;3.35;;;;;;;;;;5823941;28;20046;-82
2024/01/05 11:15:38;;;;;;;2.75;1.95;;;;;;;;;;5855358;28;20548;-82
2024/01/05 11:18:55;;;;;;;3.42;2.00;;;;;;;;;;5838902;28;20545;-82
2024/01/05 11:21:59;;;;;;;2.08;1.42;;;;;;;;;;5840041;28;20061;-82
2024/01/05 11:24:51;;;;;;;6.88;2.22;;;;;;;;;;5839008;28;20038;-82
2024/01/05 11:27:46;;;;;;;1.98;1.83;;;;;;;;;;5822994;28;20042;-82
2024/01/05 11:30:40;;;;;;;3.70;2.35;;;;;;;;;;5839006;28;20514;-82
2024/01/05 11:33:49;;;;;;;4.25;3.72;;;;;;;;;;5838751;28;20045;-82
2024/01/05 11:36:49;;;;;;;4.28;2.15;;;;;;;;;;5838676;28;20402;-82
2024/01/05 11:39:49;;;;;;;1.77;1.60;;;;;;;;;;5854876;28;20050;-82
2024/01/05 11:42:44;;;;;;;11.10;2.13;;;;;;;;;;5837684;28;20080;-81
2024/01/05 11:45:41;;;;;;;3.15;2.80;;;;;;;;;;5839678;28;20041;-81
2024/01/05 11:48:35;;;;;;;2.30;2.05;;;;;;;;;;5839619;28;20045;-81
2024/01/05 11:51:29;;;;;;;3.70;1.58;;;;;;;;;;5839629;28;20135;-81
2024/01/05 11:54:19;;;;;;;2.50;2.30;;;;;;;;;;5839918;28;20057;-81
2024/01/05 11:57:10;;;;;;;5.22;1.73;;;;;;;;;;5839577;28;20057;-81
2024/01/05 12:00:02;;;;;;;7.20;3.97;;;;;;;;;;5838176;28;20049;-81
2024/01/05 12:03:04;;;;;;;1.50;1.40;;;;;;;;;;5838854;28;20530;-82
2024/01/05 12:06:03;;;;;;;4.88;2.13;;;;;;;;;;5855140;28;20068;-81
2024/01/05 12:08:54;;;;;;;;;;;;;;;;;;5847156;28;20038;-82
2024/01/05 12:11:45;;;;;;;4.03;2.28;;;;;;;;;;5837970;28;19928;-81
2024/01/05 12:14:37;;;;;;;3.65;1.88;;;;;;;;;;5838045;28;20046;-81
2024/01/05 12:17:27;;;;;;;2.17;1.08;;;;;;;;;;5837795;28;20064;-81
2024/01/05 12:20:18;;;;;;;2.70;2.17;;;;;;;;;;5854230;28;20060;-81
2024/01/05 12:23:10;;;;;;;4.18;2.47;;;;;;;;;;5821546;28;20050;-81
2024/01/05 12:26:08;;;;;;;3.53;1.75;;;;;;;;;;5838260;28;20046;-81
2024/01/05 12:28:59;;;;;;;2.72;2.50;;;;;;;;;;5839306;28;20058;-81
2024/01/05 12:31:50;;;;;;;3.88;1.73;;;;;;;;;;5821865;28;20041;-81
2024/01/05 12:34:41;;;;;;;3.55;2.00;;;;;;;;;;5838745;28;20050;-81
2024/01/05 12:37:32;;;;;;;4.32;2.22;;;;;;;;;;5837944;28;20100;-81
2024/01/05 12:40:25;;;;;;;4.80;2.33;;;;;;;;;;5837384;28;20065;-81
2024/01/05 12:43:17;;;;;;;3.53;1.10;;;;;;;;;;5821360;28;20045;-81
2024/01/05 12:46:07;;;;;;;1.92;1.63;;;;;;;;;;5837542;28;20042;-81
2024/01/05 12:48:58;;;;;;;1.40;1.20;;;;;;;;;;5838013;28;20408;-81
2024/01/05 12:51:51;;;;;;;2.58;2.10;;;;;;;;;;5837640;28;20048;-81
2024/01/05 12:54:42;;;;;;;20.23;2.15;;;;;;;;;;5840913;28;20515;-81
2024/01/05 12:57:33;;;;;;;15.25;8.73;;;;;;;;;;5842007;28;20127;-81
2024/01/05 13:00:26;;;;;;;16.55;10.98;;;;;;;;;;5841727;28;20041;-80
2024/01/05 13:03:17;;;;;;;42.08;30.27;;;;;;;;;;5841986;28;20064;-81
2024/01/05 13:06:09;;;;;;;30.40;18.20;;;;;;;;;;5825506;28;20043;-81
2024/01/05 13:09:00;;;;;;;18.45;6.47;;;;;;;;;;5842108;28;20392;-81
2024/01/05 13:11:53;;;;;;;12.80;10.70;;;;;;;;;;5856858;28;20045;-81
2024/01/05 13:14:44;;;;;;;32.05;16.52;;;;;;;;;;5864634;28;20503;-80
2024/01/05 13:17:34;;;;;;;10.70;5.45;;;;;;;;;;5845940;28;20124;-81
2024/01/05 13:20:25;;;;;;;1.35;1.25;;;;;;;;;;5828313;28;20120;-81
2024/01/05 13:23:16;;;;;;;5.93;3.95;;;;;;;;;;5841528;28;20045;-80
2024/01/05 13:26:09;;;;;;;11.75;7.50;;;;;;;;;;5841263;28;20043;-80
2024/01/05 13:29:00;;;;;;;21.73;10.98;;;;;;;;;;5841559;28;20049;-81
2024/01/05 13:31:50;;;;;;;26.10;16.90;;;;;;;;;;5864987;28;20415;-81
2024/01/05 13:34:41;;;;;;;42.88;25.33;;;;;;;;;;5863758;28;20049;-81
2024/01/05 13:37:32;;;;;;;37.50;16.83;;;;;;;;;;5864082;28;20522;-80
2024/01/05 13:40:23;;;;;;;17.05;6.53;;;;;;;;;;5863810;28;20041;-81
2024/01/05 13:43:14;;;;;;;33.42;15.40;;;;;;;;;;5864130;28;20076;-80
2024/01/05 13:46:06;;;;;;;21.85;12.82;;;;;;;;;;5863950;28;20096;-80
2024/01/05 13:48:57;;;;;;;14.73;9.88;;;;;;;;;;5864223;28;20060;-80
2024/01/05 13:51:47;;;;;;;13.27;5.65;;;;;;;;;;5865321;28;20410;-80
2024/01/05 13:54:38;;;;;;;6.35;5.68;;;;;;;;;;5863699;28;20673;-81
2024/01/05 13:57:29;;;;;;;7.55;3.95;;;;;;;;;;5827262;28;20052;-81
2024/01/05 14:00:20;;;;;;;9.90;4.75;;;;;;;;;;5840408;28;20050;-80
2024/01/05 14:03:11;;;;;;;11.07;4.90;;;;;;;;;;5856906;28;20061;-80
2024/01/05 14:06:09;;;;;;;13.40;3.50;;;;;;;;;;5839492;28;20057;-81
2024/01/05 14:09:01;;;;;;;17.45;8.13;;;;;;;;;;5840643;28;20149;-80
2024/01/05 14:11:52;;;;;;;21.52;6.55;;;;;;;;;;5871921;28;20176;-80
2024/01/05 14:14:43;;;;;;;7.45;4.15;;;;;;;;;;5863248;28;20051;-80
2024/01/05 14:17:33;;;;;;;4.70;3.55;;;;;;;;;;5860936;28;20044;-80
2024/01/05 14:20:24;;;;;;;6.43;3.92;;;;;;;;;;5864299;28;20046;-80
2024/01/05 14:23:15;;;;;;;7.55;4.50;;;;;;;;;;5863100;28;20042;-80
2024/01/05 14:26:12;;;;;;;11.38;3.85;;;;;;;;;;5862925;28;20045;-80
2024/01/05 14:29:04;;;;;;;16.30;6.43;;;;;;;;;;5864323;28;20061;-80
2024/01/05 14:31:59;;;;;;;14.50;5.88;;;;;;;;;;5863305;28;20103;-80
2024/01/05 14:34:50;;;;;;;13.85;8.15;;;;;;;;;;5878567;28;20049;-80
2024/01/05 14:37:41;;;;;;;9.45;4.65;;;;;;;;;;5862707;28;20052;-80
2024/01/05 14:40:32;;;;;;;13.82;5.75;;;;;;;;;;5825742;28;20058;-80
2024/01/05 14:43:23;;;;;;;15.15;9.45;;;;;;;;;;5839477;28;20046;-80
2024/01/05 14:46:15;;;;;;;22.52;7.18;;;;;;;;;;5839453;28;20049;-80
2024/01/05 14:49:05;;;;;;;6.28;4.90;;;;;;;;;;5839615;28;20392;-80
2024/01/05 14:51:59;;;;;;;17.90;10.50;;;;;;;;;;5841208;28;20397;-80
2024/01/05 14:54:50;;;;;;;38.90;5.72;;;;;;;;;;5839216;28;20129;-80
2024/01/05 14:57:43;;;;;;;6.88;4.85;;;;;;;;;;5839045;28;20046;-80
2024/01/05 15:00:34;;;;;;;15.15;7.50;;;;;;;;;;5840639;28;20441;-80
2024/01/05 15:03:26;;;;;;;16.02;8.13;;;;;;;;;;5840249;28;20049;-80
2024/01/05 15:06:21;;;;;;;19.52;8.20;;;;;;;;;;5838982;28;20389;-80
2024/01/05 15:09:13;;;;;;;13.23;6.40;;;;;;;;;;5838971;28;20599;-80
2024/01/05 15:12:05;;;;;;;16.15;8.85;;;;;;;;;;5839012;28;20081;-80
2024/01/05 15:14:56;;;;;;;13.63;7.53;;;;;;;;;;5839150;28;20089;-80
2024/01/05 15:17:46;;;;;;;11.32;7.00;;;;;;;;;;5838683;28;20048;-80
2024/01/05 15:20:38;;;;;;;9.65;7.13;;;;;;;;;;5838875;28;20069;-80
2024/01/05 15:23:28;;;;;;;7.60;5.93;;;;;;;;;;5838710;28;20411;-80
2024/01/05 15:26:19;;;;;;;18.52;6.50;;;;;;;;;;5838960;28;20049;-80
2024/01/05 15:29:10;;;;;;;7.38;4.65;;;;;;;;;;5840341;28;20512;-80
2024/01/05 15:32:01;;;;;;;6.57;3.80;;;;;;;;;;5839105;28;20045;-80
2024/01/05 15:34:51;;;;;;;8.70;4.28;;;;;;;;;;5823339;28;20057;-80
2024/01/05 15:37:42;;;;;;;7.32;4.32;;;;;;;;;;5839939;28;20050;-80
2024/01/05 15:40:33;;;;;;;9.88;4.82;;;;;;;;;;5840043;28;20046;-80
2024/01/05 15:43:28;;;;;;;9.65;5.22;;;;;;;;;;5838656;28;20050;-80
2024/01/05 15:46:18;;;;;;;10.48;4.70;;;;;;;;;;5838282;28;20153;-80
2024/01/05 15:49:09;;;;;;;3.97;2.50;;;;;;;;;;5839837;28;20076;-80
2024/01/05 15:52:00;;;;;;;5.38;4.45;;;;;;;;;;5838885;28;20071;-80
2024/01/05 15:54:51;;;;;;;9.68;3.72;;;;;;;;;;5838290;28;20392;-80
2024/01/05 15:57:42;;;;;;;14.95;7.85;;;;;;;;;;5838113;28;20077;-80
2024/01/05 16:00:33;;;;;;;11.57;7.20;;;;;;;;;;5822287;28;20466;-80
2024/01/05 16:03:24;;;;;;;17.95;5.57;;;;;;;;;;5839593;28;20522;-80
2024/01/05 16:06:19;;;;;;;12.07;7.03;;;;;;;;;;5838133;28;20128;-80
2024/01/05 16:09:11;;;;;;;8.82;4.53;;;;;;;;;;5822501;28;20065;-80
2024/01/05 16:12:04;;;;;;;6.82;3.40;;;;;;;;;;5838427;28;20518;-79
2024/01/05 16:14:55;;;;;;;27.77;3.42;;;;;;;;;;5838457;28;20046;-80
2024/01/05 16:17:45;;;;;;;39.17;3.35;;;;;;;;;;5839276;28;20050;-80
2024/01/05 16:20:38;;;;;;;10.75;4.75;;;;;;;;;;5837841;28;20092;-80
2024/01/05 16:23:29;;;;;;;15.98;4.75;;;;;;;;;;5838099;28;20042;-80
2024/01/05 16:26:22;;;;;;;7.18;4.38;;;;;;;;;;5837877;28;20412;-80
2024/01/05 16:29:13;;;;;;;9.48;5.60;;;;;;;;;;5840456;28;20064;-80
2024/01/05 16:32:04;;;;;;;11.65;5.75;;;;;;;;;;5843943;28;20050;-80
2024/01/05 16:34:55;;;;;;;21.20;6.40;;;;;;;;;;5844089;28;20050;-80
2024/01/05 16:37:46;;;;;;;9.80;4.53;;;;;;;;;;5842338;28;20100;-80
2024/01/05 16:40:36;;;;;;;50.83;5.57;;;;;;;;;;5843687;28;20495;-80
2024/01/05 16:43:27;;;;;;;6.13;3.75;;;;;;;;;;5843663;28;20080;-80
2024/01/05 16:46:19;;;;;;;6.78;3.55;;;;;;;;;;5826111;28;20072;-80
2024/01/05 16:49:09;;;;;;;4.57;3.40;;;;;;;;;;5842301;28;20547;-80
2024/01/05 16:52:00;;;;;;;23.52;5.57;;;;;;;;;;5826482;28;20111;-80
2024/01/05 16:54:51;;;;;;;11.95;5.22;;;;;;;;;;5842231;28;20045;-80
2024/01/05 16:57:42;;;;;;;5.18;3.40;;;;;;;;;;5841809;28;20046;-80
2024/01/05 17:00:33;;;;;;;13.13;5.25;;;;;;;;;;5841840;28;20046;-80
2024/01/05 17:03:24;;;;;;;8.40;4.75;;;;;;;;;;5825467;28;20045;-80
2024/01/05 17:06:15;;;;;;;8.73;3.70;;;;;;;;;;5841951;28;20082;-79
2024/01/05 17:09:10;;;;;;;7.90;4.13;;;;;;;;;;5841544;28;20054;-80